sensor_id;sensor_type;location;lat;lon;timestamp;P1;durP1;ratioP1;P2;durP2;ratioP2
54929;SDS011;40833;53.238;6.576;2023-05-20T12:33:44;3.65;;;1.50;;
54929;SDS011;40833;53.238;6.576;2023-05-20T12:36:10;3.20;;;1.80;;
54929;SDS011;40833;53.238;6.576;2023-05-20T12:38:37;6.72;;;1.95;;
54929;SDS011;40833;53.238;6.576;2023-05-20T12:41:02;3.35;;;1.67;;
54929;SDS011;40833;53.238;6.576;2023-05-20T12:43:28;5.90;;;1.67;;
54929;SDS011;40833;53.238;6.576;2023-05-20T12:45:54;4.60;;;1.60;;
54929;SDS011;40833;53.238;6.576;2023-05-20T12:48:20;6.57;;;1.90;;
54929;SDS011;40833;53.238;6.576;2023-05-20T12:50:46;4.32;;;1.50;;
54929;SDS011;40833;53.238;6.576;2023-05-20T12:53:11;4.93;;;2.20;;
54929;SDS011;40833;53.238;6.576;2023-05-20T12:55:37;3.28;;;1.75;;
54929;SDS011;40833;53.238;6.576;2023-05-20T12:58:03;8.82;;;1.65;;
54929;SDS011;40833;53.238;6.576;2023-05-20T13:00:29;4.00;;;1.80;;
54929;SDS011;40833;53.238;6.576;2023-05-20T13:02:55;4.88;;;1.60;;
54929;SDS011;40833;53.238;6.576;2023-05-20T13:05:21;9.05;;;2.10;;
54929;SDS011;40833;53.238;6.576;2023-05-20T13:07:46;4.32;;;1.73;;
54929;SDS011;40833;53.238;6.576;2023-05-20T13:10:13;4.75;;;2.20;;
54929;SDS011;40833;53.238;6.576;2023-05-20T13:12:38;7.90;;;1.98;;
54929;SDS011;40833;53.238;6.576;2023-05-20T13:15:09;5.75;;;1.90;;
54929;SDS011;40833;53.238;6.576;2023-05-20T13:17:36;6.60;;;2.20;;
54929;SDS011;40833;53.238;6.576;2023-05-20T13:20:02;6.47;;;1.98;;
54929;SDS011;40833;53.238;6.576;2023-05-20T13:22:28;7.68;;;2.05;;
54929;SDS011;40833;53.238;6.576;2023-05-20T13:24:54;6.32;;;2.00;;
54929;SDS011;40833;53.238;6.576;2023-05-20T13:27:19;9.95;;;2.28;;
54929;SDS011;40833;53.238;6.576;2023-05-20T13:29:45;9.25;;;2.10;;
54929;SDS011;40833;53.238;6.576;2023-05-20T13:32:11;5.47;;;1.85;;
54929;SDS011;40833;53.238;6.576;2023-05-20T13:34:36;4.30;;;2.15;;
54929;SDS011;40833;53.238;6.576;2023-05-20T13:37:03;11.10;;;2.03;;
54929;SDS011;40833;53.238;6.576;2023-05-20T13:39:29;4.03;;;1.80;;
54929;SDS011;40833;53.238;6.576;2023-05-20T13:41:55;8.57;;;1.77;;
54929;SDS011;40833;53.238;6.576;2023-05-20T13:44:21;7.40;;;1.98;;
54929;SDS011;40833;53.238;6.576;2023-05-20T13:46:46;4.43;;;2.00;;
54929;SDS011;40833;53.238;6.576;2023-05-20T13:49:12;9.23;;;1.63;;
54929;SDS011;40833;53.238;6.576;2023-05-20T13:51:37;3.67;;;1.98;;
54929;SDS011;40833;53.238;6.576;2023-05-20T13:54:03;3.80;;;1.83;;
54929;SDS011;40833;53.238;6.576;2023-05-20T13:56:30;9.75;;;2.22;;
54929;SDS011;40833;53.238;6.576;2023-05-20T13:58:56;7.68;;;2.72;;
54929;SDS011;40833;53.238;6.576;2023-05-20T14:01:22;6.00;;;1.67;;
54929;SDS011;40833;53.238;6.576;2023-05-20T14:03:47;4.88;;;2.33;;
54929;SDS011;40833;53.238;6.576;2023-05-20T14:06:13;4.22;;;1.90;;
54929;SDS011;40833;53.238;6.576;2023-05-20T14:08:42;4.05;;;1.85;;
54929;SDS011;40833;53.238;6.576;2023-05-20T14:11:09;6.35;;;1.63;;
54929;SDS011;40833;53.238;6.576;2023-05-20T14:13:35;6.88;;;1.77;;
54929;SDS011;40833;53.238;6.576;2023-05-20T14:16:01;4.38;;;1.50;;
54929;SDS011;40833;53.238;6.576;2023-05-20T14:18:27;3.95;;;1.52;;
54929;SDS011;40833;53.238;6.576;2023-05-20T14:20:52;4.03;;;1.40;;
54929;SDS011;40833;53.238;6.576;2023-05-20T14:23:18;7.25;;;1.42;;
54929;SDS011;40833;53.238;6.576;2023-05-20T14:25:45;5.13;;;1.33;;
54929;SDS011;40833;53.238;6.576;2023-05-20T14:28:11;8.70;;;2.05;;
54929;SDS011;40833;53.238;6.576;2023-05-20T14:30:36;8.60;;;1.90;;
54929;SDS011;40833;53.238;6.576;2023-05-20T14:33:02;4.80;;;1.65;;
54929;SDS011;40833;53.238;6.576;2023-05-20T14:35:28;5.07;;;1.75;;
54929;SDS011;40833;53.238;6.576;2023-05-20T14:37:53;5.15;;;1.33;;
54929;SDS011;40833;53.238;6.576;2023-05-20T14:40:19;13.27;;;1.73;;
54929;SDS011;40833;53.238;6.576;2023-05-20T14:42:45;5.22;;;1.67;;
54929;SDS011;40833;53.238;6.576;2023-05-20T14:45:11;4.15;;;1.45;;
54929;SDS011;40833;53.238;6.576;2023-05-20T14:47:36;5.75;;;1.50;;
54929;SDS011;40833;53.238;6.576;2023-05-20T14:50:04;4.80;;;1.70;;
54929;SDS011;40833;53.238;6.576;2023-05-20T14:52:30;7.55;;;1.95;;
54929;SDS011;40833;53.238;6.576;2023-05-20T14:54:56;6.80;;;1.90;;
54929;SDS011;40833;53.238;6.576;2023-05-20T14:57:22;4.70;;;1.63;;
54929;SDS011;40833;53.238;6.576;2023-05-20T14:59:47;6.15;;;2.15;;
54929;SDS011;40833;53.238;6.576;2023-05-20T15:02:16;7.78;;;1.73;;
54929;SDS011;40833;53.238;6.576;2023-05-20T15:04:43;6.07;;;1.58;;
54929;SDS011;40833;53.238;6.576;2023-05-20T15:07:11;5.63;;;2.03;;
54929;SDS011;40833;53.238;6.576;2023-05-20T15:09:38;5.20;;;1.92;;
54929;SDS011;40833;53.238;6.576;2023-05-20T15:12:03;3.13;;;1.90;;
54929;SDS011;40833;53.238;6.576;2023-05-20T15:14:30;8.10;;;3.05;;
54929;SDS011;40833;53.238;6.576;2023-05-20T15:16:55;4.53;;;1.88;;
54929;SDS011;40833;53.238;6.576;2023-05-20T15:19:21;6.25;;;1.48;;
54929;SDS011;40833;53.238;6.576;2023-05-20T15:21:47;9.18;;;1.63;;
54929;SDS011;40833;53.238;6.576;2023-05-20T15:24:15;6.60;;;1.45;;
54929;SDS011;40833;53.238;6.576;2023-05-20T15:26:41;7.18;;;1.42;;
54929;SDS011;40833;53.238;6.576;2023-05-20T15:29:07;6.22;;;1.02;;
54929;SDS011;40833;53.238;6.576;2023-05-20T15:31:33;5.55;;;1.40;;
54929;SDS011;40833;53.238;6.576;2023-05-20T15:33:59;4.80;;;1.48;;
54929;SDS011;40833;53.238;6.576;2023-05-20T15:36:24;5.10;;;1.25;;
54929;SDS011;40833;53.238;6.576;2023-05-20T15:38:50;8.27;;;1.10;;
54929;SDS011;40833;53.238;6.576;2023-05-20T15:41:16;7.55;;;1.63;;
54929;SDS011;40833;53.238;6.576;2023-05-20T15:43:42;9.32;;;2.00;;
54929;SDS011;40833;53.238;6.576;2023-05-20T15:46:08;9.18;;;1.45;;
54929;SDS011;40833;53.238;6.576;2023-05-20T15:48:35;4.15;;;1.23;;
54929;SDS011;40833;53.238;6.576;2023-05-20T15:51:01;5.40;;;1.40;;
54929;SDS011;40833;53.238;6.576;2023-05-20T15:53:27;6.82;;;1.23;;
54929;SDS011;40833;53.238;6.576;2023-05-20T15:55:53;4.47;;;1.30;;
54929;SDS011;40833;53.238;6.576;2023-05-20T15:58:19;8.43;;;1.35;;
54929;SDS011;40833;53.238;6.576;2023-05-20T16:00:45;4.15;;;1.05;;
54929;SDS011;40833;53.238;6.576;2023-05-20T16:03:11;5.28;;;1.50;;
54929;SDS011;40833;53.238;6.576;2023-05-20T16:05:36;4.65;;;1.42;;
54929;SDS011;40833;53.238;6.576;2023-05-20T16:08:03;4.80;;;1.65;;
54929;SDS011;40833;53.238;6.576;2023-05-20T16:10:29;2.65;;;1.35;;
54929;SDS011;40833;53.238;6.576;2023-05-20T16:12:58;2.38;;;0.98;;
54929;SDS011;40833;53.238;6.576;2023-05-20T16:15:24;2.63;;;0.68;;
54929;SDS011;40833;53.238;6.576;2023-05-20T16:17:50;2.75;;;1.30;;
54929;SDS011;40833;53.238;6.576;2023-05-20T16:20:16;1.65;;;0.88;;
54929;SDS011;40833;53.238;6.576;2023-05-20T16:22:42;2.38;;;0.82;;
54929;SDS011;40833;53.238;6.576;2023-05-20T16:25:07;6.38;;;0.93;;
54929;SDS011;40833;53.238;6.576;2023-05-20T16:27:35;4.88;;;1.17;;
54929;SDS011;40833;53.238;6.576;2023-05-20T16:30:01;4.30;;;0.60;;
54929;SDS011;40833;53.238;6.576;2023-05-20T16:32:27;3.97;;;0.65;;
54929;SDS011;40833;53.238;6.576;2023-05-20T16:34:53;2.67;;;0.50;;
54929;SDS011;40833;53.238;6.576;2023-05-20T16:37:20;6.00;;;1.40;;
54929;SDS011;40833;53.238;6.576;2023-05-20T16:39:46;2.67;;;0.80;;
54929;SDS011;40833;53.238;6.576;2023-05-20T16:42:11;1.65;;;0.52;;
54929;SDS011;40833;53.238;6.576;2023-05-20T16:44:37;2.85;;;2.13;;
54929;SDS011;40833;53.238;6.576;2023-05-20T16:47:04;3.50;;;0.95;;
54929;SDS011;40833;53.238;6.576;2023-05-20T16:49:30;2.25;;;0.50;;
54929;SDS011;40833;53.238;6.576;2023-05-20T16:51:56;0.88;;;0.60;;
54929;SDS011;40833;53.238;6.576;2023-05-20T16:54:22;7.25;;;0.90;;
54929;SDS011;40833;53.238;6.576;2023-05-20T16:56:48;2.38;;;0.50;;
54929;SDS011;40833;53.238;6.576;2023-05-20T16:59:14;4.60;;;0.60;;
54929;SDS011;40833;53.238;6.576;2023-05-20T17:01:41;1.63;;;1.27;;
54929;SDS011;40833;53.238;6.576;2023-05-20T17:04:07;3.03;;;0.90;;
54929;SDS011;40833;53.238;6.576;2023-05-20T17:06:32;1.20;;;0.85;;
54929;SDS011;40833;53.238;6.576;2023-05-20T17:08:58;4.07;;;0.50;;
54929;SDS011;40833;53.238;6.576;2023-05-20T17:11:26;2.20;;;0.70;;
54929;SDS011;40833;53.238;6.576;2023-05-20T17:13:52;2.78;;;0.63;;
54929;SDS011;40833;53.238;6.576;2023-05-20T17:16:18;9.25;;;1.33;;
54929;SDS011;40833;53.238;6.576;2023-05-20T17:18:44;1.20;;;0.63;;
54929;SDS011;40833;53.238;6.576;2023-05-20T17:21:09;2.70;;;0.43;;
54929;SDS011;40833;53.238;6.576;2023-05-20T17:23:35;3.35;;;0.98;;
54929;SDS011;40833;53.238;6.576;2023-05-20T17:26:01;3.72;;;0.70;;
54929;SDS011;40833;53.238;6.576;2023-05-20T17:28:27;2.40;;;0.70;;
54929;SDS011;40833;53.238;6.576;2023-05-20T17:30:52;1.15;;;0.57;;
54929;SDS011;40833;53.238;6.576;2023-05-20T17:33:18;10.90;;;1.00;;
54929;SDS011;40833;53.238;6.576;2023-05-20T17:35:44;1.60;;;0.50;;
54929;SDS011;40833;53.238;6.576;2023-05-20T17:38:10;4.47;;;0.93;;
54929;SDS011;40833;53.238;6.576;2023-05-20T17:40:35;3.05;;;0.88;;
54929;SDS011;40833;53.238;6.576;2023-05-20T17:43:01;5.45;;;1.00;;
54929;SDS011;40833;53.238;6.576;2023-05-20T17:45:27;2.38;;;0.70;;
54929;SDS011;40833;53.238;6.576;2023-05-20T17:47:52;2.92;;;0.70;;
54929;SDS011;40833;53.238;6.576;2023-05-20T17:50:18;2.70;;;1.02;;
54929;SDS011;40833;53.238;6.576;2023-05-20T17:52:44;2.40;;;0.60;;
54929;SDS011;40833;53.238;6.576;2023-05-20T17:55:09;2.45;;;0.75;;
54929;SDS011;40833;53.238;6.576;2023-05-20T17:57:36;2.65;;;0.85;;
54929;SDS011;40833;53.238;6.576;2023-05-20T18:00:02;2.78;;;0.75;;
54929;SDS011;40833;53.238;6.576;2023-05-20T18:02:29;5.55;;;0.90;;
54929;SDS011;40833;53.238;6.576;2023-05-20T18:04:55;2.60;;;0.70;;
54929;SDS011;40833;53.238;6.576;2023-05-20T18:07:21;3.05;;;0.52;;
54929;SDS011;40833;53.238;6.576;2023-05-20T18:09:46;2.92;;;0.90;;
54929;SDS011;40833;53.238;6.576;2023-05-20T18:12:12;5.80;;;1.00;;
54929;SDS011;40833;53.238;6.576;2023-05-20T18:14:38;2.22;;;0.95;;
54929;SDS011;40833;53.238;6.576;2023-05-20T18:17:03;4.22;;;0.90;;
54929;SDS011;40833;53.238;6.576;2023-05-20T18:19:29;4.53;;;1.02;;
54929;SDS011;40833;53.238;6.576;2023-05-20T18:21:55;5.20;;;1.20;;
54929;SDS011;40833;53.238;6.576;2023-05-20T18:24:20;6.00;;;1.85;;
54929;SDS011;40833;53.238;6.576;2023-05-20T18:26:46;4.78;;;1.10;;
54929;SDS011;40833;53.238;6.576;2023-05-20T18:29:12;2.30;;;1.10;;
54929;SDS011;40833;53.238;6.576;2023-05-20T18:31:37;2.03;;;1.00;;
54929;SDS011;40833;53.238;6.576;2023-05-20T18:34:03;4.13;;;1.10;;
54929;SDS011;40833;53.238;6.576;2023-05-20T18:36:29;3.22;;;1.10;;
54929;SDS011;40833;53.238;6.576;2023-05-20T18:38:55;6.82;;;1.00;;
54929;SDS011;40833;53.238;6.576;2023-05-20T18:41:21;4.97;;;1.10;;
54929;SDS011;40833;53.238;6.576;2023-05-20T18:43:47;7.00;;;1.00;;
54929;SDS011;40833;53.238;6.576;2023-05-20T18:46:14;3.28;;;0.90;;
54929;SDS011;40833;53.238;6.576;2023-05-20T18:48:40;5.22;;;1.10;;
54929;SDS011;40833;53.238;6.576;2023-05-20T18:51:05;6.43;;;0.95;;
54929;SDS011;40833;53.238;6.576;2023-05-20T18:53:31;3.47;;;1.08;;
54929;SDS011;40833;53.238;6.576;2023-05-20T18:55:57;1.58;;;1.20;;
54929;SDS011;40833;53.238;6.576;2023-05-20T18:58:27;1.85;;;0.77;;
54929;SDS011;40833;53.238;6.576;2023-05-20T19:00:53;5.38;;;1.20;;
54929;SDS011;40833;53.238;6.576;2023-05-20T19:03:19;6.97;;;1.30;;
54929;SDS011;40833;53.238;6.576;2023-05-20T19:05:47;2.17;;;1.55;;
54929;SDS011;40833;53.238;6.576;2023-05-20T19:08:13;5.07;;;0.90;;
54929;SDS011;40833;53.238;6.576;2023-05-20T19:10:39;4.60;;;1.35;;
54929;SDS011;40833;53.238;6.576;2023-05-20T19:13:05;2.03;;;0.98;;
54929;SDS011;40833;53.238;6.576;2023-05-20T19:15:31;4.30;;;1.13;;
54929;SDS011;40833;53.238;6.576;2023-05-20T19:17:58;4.25;;;1.30;;
54929;SDS011;40833;53.238;6.576;2023-05-20T19:20:23;2.45;;;1.20;;
54929;SDS011;40833;53.238;6.576;2023-05-20T19:22:49;2.85;;;1.08;;
54929;SDS011;40833;53.238;6.576;2023-05-20T19:25:16;5.25;;;1.35;;
54929;SDS011;40833;53.238;6.576;2023-05-20T19:27:42;3.70;;;1.20;;
54929;SDS011;40833;53.238;6.576;2023-05-20T19:30:08;4.60;;;1.27;;
54929;SDS011;40833;53.238;6.576;2023-05-20T19:32:34;7.47;;;1.55;;
54929;SDS011;40833;53.238;6.576;2023-05-20T19:35:00;1.95;;;1.05;;
54929;SDS011;40833;53.238;6.576;2023-05-20T19:37:26;3.75;;;1.20;;
54929;SDS011;40833;53.238;6.576;2023-05-20T19:39:52;2.25;;;1.02;;
54929;SDS011;40833;53.238;6.576;2023-05-20T19:42:17;5.93;;;1.55;;
54929;SDS011;40833;53.238;6.576;2023-05-20T19:44:43;3.88;;;1.58;;
54929;SDS011;40833;53.238;6.576;2023-05-20T19:47:10;4.55;;;1.30;;
54929;SDS011;40833;53.238;6.576;2023-05-20T19:49:36;3.85;;;2.38;;
54929;SDS011;40833;53.238;6.576;2023-05-20T19:52:02;2.42;;;1.60;;
54929;SDS011;40833;53.238;6.576;2023-05-20T19:54:27;2.95;;;1.27;;
54929;SDS011;40833;53.238;6.576;2023-05-20T19:56:53;2.67;;;1.33;;
54929;SDS011;40833;53.238;6.576;2023-05-20T19:59:19;5.10;;;1.83;;
54929;SDS011;40833;53.238;6.576;2023-05-20T20:01:45;4.95;;;2.00;;
54929;SDS011;40833;53.238;6.576;2023-05-20T20:04:11;3.00;;;1.55;;
54929;SDS011;40833;53.238;6.576;2023-05-20T20:06:37;3.95;;;1.23;;
54929;SDS011;40833;53.238;6.576;2023-05-20T20:09:02;3.05;;;1.88;;
54929;SDS011;40833;53.238;6.576;2023-05-20T20:11:29;3.60;;;1.85;;
54929;SDS011;40833;53.238;6.576;2023-05-20T20:13:54;3.60;;;1.63;;
54929;SDS011;40833;53.238;6.576;2023-05-20T20:16:22;2.65;;;1.75;;
54929;SDS011;40833;53.238;6.576;2023-05-20T20:18:48;2.60;;;1.88;;
54929;SDS011;40833;53.238;6.576;2023-05-20T20:21:13;5.30;;;2.05;;
54929;SDS011;40833;53.238;6.576;2023-05-20T20:23:39;3.13;;;1.85;;
54929;SDS011;40833;53.238;6.576;2023-05-20T20:26:05;2.80;;;1.80;;
54929;SDS011;40833;53.238;6.576;2023-05-20T20:28:31;4.40;;;1.60;;
54929;SDS011;40833;53.238;6.576;2023-05-20T20:30:57;3.40;;;1.65;;
54929;SDS011;40833;53.238;6.576;2023-05-20T20:33:24;5.82;;;2.05;;
54929;SDS011;40833;53.238;6.576;2023-05-20T20:35:50;5.28;;;2.17;;
54929;SDS011;40833;53.238;6.576;2023-05-20T20:38:19;6.07;;;2.10;;
54929;SDS011;40833;53.238;6.576;2023-05-20T20:40:45;3.83;;;1.88;;
54929;SDS011;40833;53.238;6.576;2023-05-20T20:43:12;3.80;;;1.77;;
54929;SDS011;40833;53.238;6.576;2023-05-20T20:45:45;3.67;;;2.38;;
54929;SDS011;40833;53.238;6.576;2023-05-20T20:48:12;4.05;;;2.17;;
54929;SDS011;40833;53.238;6.576;2023-05-20T20:50:41;5.82;;;1.90;;
54929;SDS011;40833;53.238;6.576;2023-05-20T20:53:11;5.80;;;1.90;;
54929;SDS011;40833;53.238;6.576;2023-05-20T20:55:40;5.75;;;1.92;;
54929;SDS011;40833;53.238;6.576;2023-05-20T20:58:08;6.70;;;1.63;;
54929;SDS011;40833;53.238;6.576;2023-05-20T21:00:35;1.73;;;1.60;;
54929;SDS011;40833;53.238;6.576;2023-05-20T21:03:02;7.38;;;2.30;;
54929;SDS011;40833;53.238;6.576;2023-05-20T21:05:28;3.10;;;1.70;;
54929;SDS011;40833;53.238;6.576;2023-05-20T21:07:54;2.75;;;1.77;;
54929;SDS011;40833;53.238;6.576;2023-05-20T21:10:23;5.82;;;2.20;;
54929;SDS011;40833;53.238;6.576;2023-05-20T21:12:56;4.10;;;2.27;;
54929;SDS011;40833;53.238;6.576;2023-05-20T21:15:23;5.00;;;3.00;;
54929;SDS011;40833;53.238;6.576;2023-05-20T21:17:49;5.07;;;2.70;;
54929;SDS011;40833;53.238;6.576;2023-05-20T21:20:15;3.83;;;2.00;;
54929;SDS011;40833;53.238;6.576;2023-05-20T21:22:42;3.33;;;2.58;;
54929;SDS011;40833;53.238;6.576;2023-05-20T21:25:07;5.17;;;2.00;;
54929;SDS011;40833;53.238;6.576;2023-05-20T21:27:33;5.27;;;2.27;;
54929;SDS011;40833;53.238;6.576;2023-05-20T21:29:59;3.47;;;2.57;;
54929;SDS011;40833;53.238;6.576;2023-05-20T21:32:25;3.50;;;1.93;;
54929;SDS011;40833;53.238;6.576;2023-05-20T21:34:50;5.47;;;2.57;;
54929;SDS011;40833;53.238;6.576;2023-05-20T21:37:16;3.20;;;2.33;;
54929;SDS011;40833;53.238;6.576;2023-05-20T21:39:42;6.77;;;2.10;;
54929;SDS011;40833;53.238;6.576;2023-05-20T21:42:07;2.47;;;2.27;;
54929;SDS011;40833;53.238;6.576;2023-05-20T21:44:33;4.10;;;2.60;;
54929;SDS011;40833;53.238;6.576;2023-05-20T21:46:59;4.00;;;2.37;;
54929;SDS011;40833;53.238;6.576;2023-05-20T21:49:25;3.03;;;2.17;;
54929;SDS011;40833;53.238;6.576;2023-05-20T21:51:50;3.93;;;2.30;;
54929;SDS011;40833;53.238;6.576;2023-05-20T21:54:18;2.33;;;1.50;;
54929;SDS011;40833;53.238;6.576;2023-05-20T21:56:44;3.13;;;1.63;;
54929;SDS011;40833;53.238;6.576;2023-05-20T21:59:11;3.53;;;2.17;;
54929;SDS011;40833;53.238;6.576;2023-05-20T22:01:37;3.53;;;1.50;;
54929;SDS011;40833;53.238;6.576;2023-05-20T22:04:03;3.87;;;2.10;;
54929;SDS011;40833;53.238;6.576;2023-05-20T22:06:30;3.93;;;1.77;;
54929;SDS011;40833;53.238;6.576;2023-05-20T22:08:59;3.27;;;1.70;;
54929;SDS011;40833;53.238;6.576;2023-05-20T22:11:25;3.83;;;1.80;;
54929;SDS011;40833;53.238;6.576;2023-05-20T22:13:51;3.77;;;1.73;;
54929;SDS011;40833;53.238;6.576;2023-05-20T22:16:17;5.30;;;1.77;;
54929;SDS011;40833;53.238;6.576;2023-05-20T22:18:43;5.40;;;1.87;;
54929;SDS011;40833;53.238;6.576;2023-05-20T22:21:11;4.17;;;2.00;;
54929;SDS011;40833;53.238;6.576;2023-05-20T22:23:38;4.57;;;1.77;;
54929;SDS011;40833;53.238;6.576;2023-05-20T22:26:05;3.93;;;1.67;;
54929;SDS011;40833;53.238;6.576;2023-05-20T22:28:32;3.57;;;1.50;;
54929;SDS011;40833;53.238;6.576;2023-05-20T22:30:58;6.57;;;2.00;;
54929;SDS011;40833;53.238;6.576;2023-05-20T22:33:24;6.37;;;2.03;;
54929;SDS011;40833;53.238;6.576;2023-05-20T22:35:51;2.20;;;2.00;;
54929;SDS011;40833;53.238;6.576;2023-05-20T22:38:17;2.50;;;1.80;;
54929;SDS011;40833;53.238;6.576;2023-05-20T22:40:43;5.20;;;1.70;;
54929;SDS011;40833;53.238;6.576;2023-05-20T22:43:09;4.80;;;2.47;;
54929;SDS011;40833;53.238;6.576;2023-05-20T22:45:37;2.73;;;2.17;;
54929;SDS011;40833;53.238;6.576;2023-05-20T22:48:03;3.90;;;2.40;;
54929;SDS011;40833;53.238;6.576;2023-05-20T22:50:29;3.30;;;2.17;;
54929;SDS011;40833;53.238;6.576;2023-05-20T22:52:58;7.70;;;1.70;;
54929;SDS011;40833;53.238;6.576;2023-05-20T22:55:23;3.80;;;2.20;;
54929;SDS011;40833;53.238;6.576;2023-05-20T22:57:49;3.70;;;2.10;;
54929;SDS011;40833;53.238;6.576;2023-05-20T23:00:15;2.97;;;1.93;;
54929;SDS011;40833;53.238;6.576;2023-05-20T23:02:42;2.07;;;1.87;;
54929;SDS011;40833;53.238;6.576;2023-05-20T23:05:09;3.57;;;1.97;;
54929;SDS011;40833;53.238;6.576;2023-05-20T23:07:36;5.43;;;2.10;;
54929;SDS011;40833;53.238;6.576;2023-05-20T23:10:02;8.17;;;2.07;;
54929;SDS011;40833;53.238;6.576;2023-05-20T23:12:28;10.40;;;2.73;;
54929;SDS011;40833;53.238;6.576;2023-05-20T23:14:54;5.17;;;2.37;;
54929;SDS011;40833;53.238;6.576;2023-05-20T23:17:20;6.57;;;2.30;;
54929;SDS011;40833;53.238;6.576;2023-05-20T23:19:45;7.07;;;2.33;;
54929;SDS011;40833;53.238;6.576;2023-05-20T23:22:11;5.23;;;2.13;;
54929;SDS011;40833;53.238;6.576;2023-05-20T23:24:38;4.27;;;2.80;;
54929;SDS011;40833;53.238;6.576;2023-05-20T23:27:03;3.03;;;2.67;;
54929;SDS011;40833;53.238;6.576;2023-05-20T23:29:30;3.13;;;2.50;;
54929;SDS011;40833;53.238;6.576;2023-05-20T23:31:56;5.90;;;2.93;;
54929;SDS011;40833;53.238;6.576;2023-05-20T23:34:21;2.83;;;2.30;;
54929;SDS011;40833;53.238;6.576;2023-05-20T23:36:47;3.20;;;2.77;;
54929;SDS011;40833;53.238;6.576;2023-05-20T23:39:14;4.00;;;2.43;;
54929;SDS011;40833;53.238;6.576;2023-05-20T23:41:39;2.60;;;2.33;;
54929;SDS011;40833;53.238;6.576;2023-05-20T23:44:05;5.20;;;2.67;;
54929;SDS011;40833;53.238;6.576;2023-05-20T23:46:31;6.63;;;2.50;;
54929;SDS011;40833;53.238;6.576;2023-05-20T23:48:56;2.57;;;2.37;;
54929;SDS011;40833;53.238;6.576;2023-05-20T23:51:24;3.37;;;2.20;;
54929;SDS011;40833;53.238;6.576;2023-05-20T23:53:50;3.37;;;2.40;;
54929;SDS011;40833;53.238;6.576;2023-05-20T23:56:15;3.40;;;2.80;;
54929;SDS011;40833;53.238;6.576;2023-05-20T23:58:41;3.93;;;2.33;;
